^^
Meteo Knjazevac Station Historical Data
Daily Summary for June 13, 2021 Units:  Both    English   Metric
Daily Weekly Monthly Yearly Custom
  High: Low: Average:
Temperature: 36.5 °F /  2.5 °C 33.2 °F /  0.7 °C 34.5 °F /  1.4 °C
Dew Point: 34.3 °F /  1.3 °C 31.8 °F /  -0.1 °C 32.7 °F /  0.4 °C
Humidity: 99% 88% 93%
Wind Speed: 9mph /  14.5km/h - 3.7mph /  6km/h
Wind Gust: 18mph /  29km/h - -
Wind- - WSW
Pressure: 30.19 in /  1022.2 hPa 30.07 in /  1018.2 hPa -
Precipitation: 0.00 in /  0 mm    
Historical Graphs
 
 
Tabular Data for June 13, 2021
Time Temperature Dew Point Pressure Wind Wind Speed Wind Gust Humidity Rainfall Rate (Hourly) solar Conditions
00:00 33.6 °F /  0.9 °C 32.3 °F /  0.2 °C 30.07in /  1018.2hPa WSW 2mph /  3.2km/h 4mph /  6.4km/h 95% 0.00in /  0mm 0 W/m2
00:10 33.6 °F /  0.9 °C 32.3 °F /  0.2 °C 30.07in /  1018.2hPa WSW 5mph /  8km/h 6mph /  9.7km/h 95% 0.00in /  0mm 0 W/m2
00:20 33.6 °F /  0.9 °C 32.3 °F /  0.2 °C 30.07in /  1018.2hPa WSW 3mph /  4.8km/h 5mph /  8km/h 95% 0.00in /  0mm 0 W/m2
00:30 33.6 °F /  0.9 °C 32.3 °F /  0.2 °C 30.07in /  1018.2hPa WSW 3mph /  4.8km/h 6mph /  9.7km/h 95% 0.00in /  0mm 0 W/m2
00:40 33.6 °F /  0.9 °C 32.3 °F /  0.2 °C 30.07in /  1018.2hPa WSW 3mph /  4.8km/h 6mph /  9.7km/h 95% 0.00in /  0mm 0 W/m2
00:50 33.6 °F /  0.9 °C 32.3 °F /  0.2 °C 30.07in /  1018.2hPa WSW 3mph /  4.8km/h 6mph /  9.7km/h 95% 0.00in /  0mm 0 W/m2
01:00 33.6 °F /  0.9 °C 32.3 °F /  0.2 °C 30.07in /  1018.2hPa WSW 3mph /  4.8km/h 6mph /  9.7km/h 95% 0.00in /  0mm 0 W/m2
01:10 33.6 °F /  0.9 °C 32.3 °F /  0.2 °C 30.07in /  1018.2hPa WSW 2mph /  3.2km/h 6mph /  9.7km/h 95% 0.00in /  0mm 0 W/m2
01:20 33.6 °F /  0.9 °C 32.3 °F /  0.2 °C 30.07in /  1018.2hPa WSW 3mph /  4.8km/h 7mph /  11.3km/h 95% 0.00in /  0mm 0 W/m2
01:30 33.6 °F /  0.9 °C 32.3 °F /  0.2 °C 30.07in /  1018.2hPa Calm   6mph /  9.7km/h 95% 0.00in /  0mm 0 W/m2
01:40 33.6 °F /  0.9 °C 32.3 °F /  0.2 °C 30.07in /  1018.2hPa WSW 2mph /  3.2km/h 3mph /  4.8km/h 95% 0.00in /  0mm 0 W/m2
01:50 33.6 °F /  0.9 °C 32.3 °F /  0.2 °C 30.08in /  1018.5hPa WSW 2mph /  3.2km/h 4mph /  6.4km/h 95% 0.00in /  0mm 0 W/m2
02:00 33.6 °F /  0.9 °C 32.3 °F /  0.2 °C 30.08in /  1018.5hPa WSW 1mph /  1.6km/h 4mph /  6.4km/h 95% 0.00in /  0mm 0 W/m2
02:10 33.6 °F /  0.9 °C 32.3 °F /  0.2 °C 30.08in /  1018.5hPa WSW 2mph /  3.2km/h 5mph /  8km/h 95% 0.00in /  0mm 0 W/m2
02:20 33.6 °F /  0.9 °C 32.3 °F /  0.2 °C 30.08in /  1018.5hPa WSW 1mph /  1.6km/h 5mph /  8km/h 95% 0.00in /  0mm 0 W/m2
02:30 33.6 °F /  0.9 °C 32.6 °F /  0.3 °C 30.08in /  1018.5hPa WSW 3mph /  4.8km/h 7mph /  11.3km/h 96% 0.00in /  0mm 0 W/m2
02:40 33.6 °F /  0.9 °C 32.3 °F /  0.2 °C 30.08in /  1018.5hPa WSW 3mph /  4.8km/h 12mph /  19.3km/h 95% 0.00in /  0mm 0 W/m2
02:50 33.6 °F /  0.9 °C 32.3 °F /  0.2 °C 30.07in /  1018.2hPa WSW 5mph /  8km/h 7mph /  11.3km/h 95% 0.00in /  0mm 0 W/m2
03:00 33.6 °F /  0.9 °C 32.3 °F /  0.2 °C 30.07in /  1018.2hPa WSW 7mph /  11.3km/h 12mph /  19.3km/h 95% 0.00in /  0mm 0 W/m2
03:10 33.6 °F /  0.9 °C 32.1 °F /  0.1 °C 30.07in /  1018.2hPa WSW 6mph /  9.7km/h 12mph /  19.3km/h 94% 0.00in /  0mm 0 W/m2
03:20 33.6 °F /  0.9 °C 31.8 °F /  -0.1 °C 30.08in /  1018.5hPa WSW 6mph /  9.7km/h 10mph /  16.1km/h 93% 0.00in /  0mm 0 W/m2
03:30 33.6 °F /  0.9 °C 32.1 °F /  0.1 °C 30.07in /  1018.2hPa WSW 2mph /  3.2km/h 10mph /  16.1km/h 94% 0.00in /  0mm 0 W/m2
03:40 33.6 °F /  0.9 °C 32.1 °F /  0.1 °C 30.07in /  1018.2hPa SW 3mph /  4.8km/h 5mph /  8km/h 94% 0.00in /  0mm 0 W/m2
03:50 33.6 °F /  0.9 °C 32.1 °F /  0.1 °C 30.07in /  1018.2hPa SW 2mph /  3.2km/h 6mph /  9.7km/h 94% 0.00in /  0mm 0 W/m2
04:00 33.6 °F /  0.9 °C 32.3 °F /  0.2 °C 30.08in /  1018.5hPa WSW 1mph /  1.6km/h 3mph /  4.8km/h 95% 0.00in /  0mm 0 W/m2
04:10 33.4 °F /  0.8 °C 32.2 °F /  0.1 °C 30.08in /  1018.5hPa WSW 2mph /  3.2km/h 3mph /  4.8km/h 95% 0.00in /  0mm 0 W/m2
04:20 33.6 °F /  0.9 °C 32.3 °F /  0.2 °C 30.08in /  1018.5hPa WSW 1mph /  1.6km/h 2mph /  3.2km/h 95% 0.00in /  0mm 0 W/m2
04:30 33.6 °F /  0.9 °C 32.3 °F /  0.2 °C 30.08in /  1018.5hPa WSW 2mph /  3.2km/h 3mph /  4.8km/h 95% 0.00in /  0mm 0 W/m2
04:40 33.4 °F /  0.8 °C 32.2 °F /  0.1 °C 30.09in /  1018.8hPa WSW 1mph /  1.6km/h 4mph /  6.4km/h 95% 0.00in /  0mm 0 W/m2
04:50 33.5 °F /  0.8 °C 32.2 °F /  0.1 °C 30.09in /  1018.8hPa WSW 1mph /  1.6km/h 5mph /  8km/h 95% 0.00in /  0mm 0 W/m2
05:00 33.4 °F /  0.8 °C 32.2 °F /  0.1 °C 30.09in /  1018.8hPa WSW 2mph /  3.2km/h 6mph /  9.7km/h 95% 0.00in /  0mm 0 W/m2
05:10 33.5 °F /  0.8 °C 31.9 °F /  -0.1 °C 30.09in /  1018.8hPa WSW 5mph /  8km/h 8mph /  12.9km/h 94% 0.00in /  0mm 0 W/m2
05:20 33.6 °F /  0.9 °C 32.3 °F /  0.2 °C 30.09in /  1018.8hPa WSW 2mph /  3.2km/h 5mph /  8km/h 95% 0.00in /  0mm 0 W/m2
05:30 33.4 °F /  0.8 °C 32.2 °F /  0.1 °C 30.09in /  1018.8hPa WNW 1mph /  1.6km/h 2mph /  3.2km/h 95% 0.00in /  0mm 0 W/m2
05:40 33.4 °F /  0.8 °C 32.2 °F /  0.1 °C 30.09in /  1018.8hPa West 1mph /  1.6km/h 3mph /  4.8km/h 95% 0.00in /  0mm 0 W/m2
05:50 33.4 °F /  0.8 °C 32.2 °F /  0.1 °C 30.10in /  1019.2hPa WSW 2mph /  3.2km/h 5mph /  8km/h 95% 0.00in /  0mm 0 W/m2
06:00 33.4 °F /  0.8 °C 31.9 °F /  -0.1 °C 30.09in /  1018.8hPa WSW 6mph /  9.7km/h 12mph /  19.3km/h 94% 0.00in /  0mm 0 W/m2
06:10 33.4 °F /  0.8 °C 31.9 °F /  -0.1 °C 30.09in /  1018.8hPa WSW 5mph /  8km/h 8mph /  12.9km/h 94% 0.00in /  0mm 0 W/m2
06:20 33.4 °F /  0.8 °C 31.9 °F /  -0.1 °C 30.10in /  1019.2hPa WSW 3mph /  4.8km/h 7mph /  11.3km/h 94% 0.00in /  0mm 0 W/m2
06:30 33.5 °F /  0.8 °C 31.9 °F /  -0.1 °C 30.10in /  1019.2hPa WSW 6mph /  9.7km/h 8mph /  12.9km/h 94% 0.00in /  0mm 0 W/m2
06:40 33.4 °F /  0.8 °C 31.9 °F /  -0.1 °C 30.10in /  1019.2hPa WSW 6mph /  9.7km/h 10mph /  16.1km/h 94% 0.00in /  0mm 0 W/m2
06:50 33.6 °F /  0.9 °C 31.8 °F /  -0.1 °C 30.10in /  1019.2hPa WSW 8mph /  12.9km/h 11mph /  17.7km/h 93% 0.00in /  0mm 0 W/m2
07:00 33.6 °F /  0.9 °C 31.8 °F /  -0.1 °C 30.10in /  1019.2hPa WSW 5mph /  8km/h 9mph /  14.5km/h 93% 0.00in /  0mm 2 W/m2
07:10 33.6 °F /  0.9 °C 32.1 °F /  0.1 °C 30.11in /  1019.5hPa WSW 3mph /  4.8km/h 7mph /  11.3km/h 94% 0.00in /  0mm 3 W/m2
07:20 33.6 °F /  0.9 °C 32.1 °F /  0.1 °C 30.11in /  1019.5hPa WSW 3mph /  4.8km/h 7mph /  11.3km/h 94% 0.00in /  0mm 7 W/m2
07:30 33.6 °F /  0.9 °C 32.1 °F /  0.1 °C 30.11in /  1019.5hPa SW 3mph /  4.8km/h 7mph /  11.3km/h 94% 0.00in /  0mm 7 W/m2
07:40 33.6 °F /  0.9 °C 32.1 °F /  0.1 °C 30.12in /  1019.9hPa WSW 2mph /  3.2km/h 6mph /  9.7km/h 94% 0.00in /  0mm 6 W/m2
07:50 33.6 °F /  0.9 °C 32.1 °F /  0.1 °C 30.12in /  1019.9hPa WSW 3mph /  4.8km/h 5mph /  8km/h 94% 0.00in /  0mm 7 W/m2
08:00 33.6 °F /  0.9 °C 32.1 °F /  0.1 °C 30.12in /  1019.9hPa WSW 3mph /  4.8km/h 6mph /  9.7km/h 94% 0.00in /  0mm 8 W/m2
08:10 33.6 °F /  0.9 °C 32.1 °F /  0.1 °C 30.13in /  1020.2hPa WSW 3mph /  4.8km/h 6mph /  9.7km/h 94% 0.00in /  0mm 9 W/m2
08:20 33.6 °F /  0.9 °C 32.1 °F /  0.1 °C 30.13in /  1020.2hPa WSW 5mph /  8km/h 6mph /  9.7km/h 94% 0.00in /  0mm 11 W/m2
08:30 33.8 °F /  1 °C 32.3 °F /  0.2 °C 30.13in /  1020.2hPa WSW 3mph /  4.8km/h 6mph /  9.7km/h 94% 0.00in /  0mm 14 W/m2
08:40 33.8 °F /  1 °C 32.5 °F /  0.3 °C 30.13in /  1020.2hPa WSW 3mph /  4.8km/h 6mph /  9.7km/h 95% 0.00in /  0mm 19 W/m2
08:50 33.8 °F /  1 °C 32.5 °F /  0.3 °C 30.13in /  1020.2hPa WSW 3mph /  4.8km/h 5mph /  8km/h 95% 0.00in /  0mm 21 W/m2
09:00 34 °F /  1.1 °C 32.7 °F /  0.4 °C 30.14in /  1020.5hPa WSW 5mph /  8km/h 6mph /  9.7km/h 95% 0.00in /  0mm 23 W/m2
09:10 34 °F /  1.1 °C 32.4 °F /  0.2 °C 30.13in /  1020.2hPa WSW 5mph /  8km/h 8mph /  12.9km/h 94% 0.00in /  0mm 32 W/m2
09:20 34.2 °F /  1.2 °C 32.6 °F /  0.3 °C 30.13in /  1020.2hPa WSW 5mph /  8km/h 7mph /  11.3km/h 94% 0.00in /  0mm 72 W/m2
09:30 34.3 °F /  1.3 °C 32.8 °F /  0.4 °C 30.13in /  1020.2hPa WSW 2mph /  3.2km/h 6mph /  9.7km/h 94% 0.00in /  0mm 64 W/m2
09:40 34.7 °F /  1.5 °C 33.4 °F /  0.8 °C 30.13in /  1020.2hPa SW 3mph /  4.8km/h 5mph /  8km/h 95% 0.00in /  0mm 83 W/m2
09:50 34.9 °F /  1.6 °C 33.3 °F /  0.7 °C 30.13in /  1020.2hPa SW 6mph /  9.7km/h 12mph /  19.3km/h 94% 0.00in /  0mm 76 W/m2
10:00 35.1 °F /  1.7 °C 33.5 °F /  0.8 °C 30.14in /  1020.5hPa WSW 5mph /  8km/h 9mph /  14.5km/h 94% 0.00in /  0mm 58 W/m2
10:10 35.2 °F /  1.8 °C 33.7 °F /  0.9 °C 30.14in /  1020.5hPa WSW 6mph /  9.7km/h 8mph /  12.9km/h 94% 0.00in /  0mm 52 W/m2
10:20 35.2 °F /  1.8 °C 33.4 °F /  0.8 °C 30.14in /  1020.5hPa WSW 7mph /  11.3km/h 10mph /  16.1km/h 93% 0.00in /  0mm 48 W/m2
10:30 35.2 °F /  1.8 °C 33.4 °F /  0.8 °C 30.13in /  1020.2hPa WSW 5mph /  8km/h 10mph /  16.1km/h 93% 0.00in /  0mm 63 W/m2
10:40 35.4 °F /  1.9 °C 33.6 °F /  0.9 °C 30.13in /  1020.2hPa West 7mph /  11.3km/h 10mph /  16.1km/h 93% 0.00in /  0mm 99 W/m2
10:50 35.6 °F /  2 °C 33.8 °F /  1 °C 30.13in /  1020.2hPa West 6mph /  9.7km/h 12mph /  19.3km/h 93% 0.00in /  0mm 98 W/m2
11:00 35.8 °F /  2.1 °C 33.4 °F /  0.8 °C 30.13in /  1020.2hPa WSW 8mph /  12.9km/h 12mph /  19.3km/h 91% 0.00in /  0mm 122 W/m2
11:10 36.1 °F /  2.3 °C 34.3 °F /  1.3 °C 30.13in /  1020.2hPa WSW 5mph /  8km/h 12mph /  19.3km/h 93% 0.00in /  0mm 124 W/m2
11:20 36.1 °F /  2.3 °C 33.8 °F /  1 °C 30.13in /  1020.2hPa West 2mph /  3.2km/h 6mph /  9.7km/h 91% 0.00in /  0mm 106 W/m2
11:30 36.3 °F /  2.4 °C 33.9 °F /  1.1 °C 30.13in /  1020.2hPa NNW 2mph /  3.2km/h 5mph /  8km/h 91% 0.00in /  0mm 90 W/m2
11:40 36.5 °F /  2.5 °C 33.8 °F /  1 °C 30.13in /  1020.2hPa NNE 1mph /  1.6km/h 4mph /  6.4km/h 90% 0.00in /  0mm 64 W/m2
11:50 36.5 °F /  2.5 °C 33.8 °F /  1 °C 30.13in /  1020.2hPa NNE 3mph /  4.8km/h 5mph /  8km/h 90% 0.00in /  0mm 41 W/m2
12:00 36.5 °F /  2.5 °C 33.8 °F /  1 °C 30.13in /  1020.2hPa NE 2mph /  3.2km/h 6mph /  9.7km/h 90% 0.00in /  0mm 34 W/m2
12:10 36.5 °F /  2.5 °C 34.1 °F /  1.2 °C 30.13in /  1020.2hPa NE 1mph /  1.6km/h 6mph /  9.7km/h 91% 0.00in /  0mm 34 W/m2
12:20 36.5 °F /  2.5 °C 34.1 °F /  1.2 °C 30.13in /  1020.2hPa North 1mph /  1.6km/h 3mph /  4.8km/h 91% 0.00in /  0mm 33 W/m2
12:30 36.3 °F /  2.4 °C 33.7 °F /  0.9 °C 30.13in /  1020.2hPa NNW 1mph /  1.6km/h 4mph /  6.4km/h 90% 0.00in /  0mm 41 W/m2
12:40 36.3 °F /  2.4 °C 33.7 °F /  0.9 °C 30.13in /  1020.2hPa Calm   5mph /  8km/h 90% 0.00in /  0mm 49 W/m2
12:50 36.5 °F /  2.5 °C 33.8 °F /  1 °C 30.13in /  1020.2hPa WNW 2mph /  3.2km/h 4mph /  6.4km/h 90% 0.00in /  0mm 38 W/m2
13:00 36.3 °F /  2.4 °C 33.4 °F /  0.8 °C 30.13in /  1020.2hPa West 1mph /  1.6km/h 6mph /  9.7km/h 89% 0.00in /  0mm 42 W/m2
13:10 36.3 °F /  2.4 °C 33.4 °F /  0.8 °C 30.13in /  1020.2hPa West 3mph /  4.8km/h 7mph /  11.3km/h 89% 0.00in /  0mm 36 W/m2
13:20 36.3 °F /  2.4 °C 33.4 °F /  0.8 °C 30.13in /  1020.2hPa West 3mph /  4.8km/h 8mph /  12.9km/h 89% 0.00in /  0mm 39 W/m2
13:30 36.1 °F /  2.3 °C 33.2 °F /  0.7 °C 30.13in /  1020.2hPa West 5mph /  8km/h 9mph /  14.5km/h 89% 0.00in /  0mm 34 W/m2
13:40 36.1 °F /  2.3 °C 33.2 °F /  0.7 °C 30.13in /  1020.2hPa WSW 5mph /  8km/h 11mph /  17.7km/h 89% 0.00in /  0mm 29 W/m2
13:50 36.1 °F /  2.3 °C 33.2 °F /  0.7 °C 30.13in /  1020.2hPa WSW 5mph /  8km/h 8mph /  12.9km/h 89% 0.00in /  0mm 37 W/m2
14:00 36.1 °F /  2.3 °C 33.2 °F /  0.7 °C 30.13in /  1020.2hPa WSW 2mph /  3.2km/h 8mph /  12.9km/h 89% 0.00in /  0mm 31 W/m2
14:10 36.3 °F /  2.4 °C 33.4 °F /  0.8 °C 30.13in /  1020.2hPa WSW 3mph /  4.8km/h 5mph /  8km/h 89% 0.00in /  0mm 37 W/m2
14:20 36.3 °F /  2.4 °C 33.4 °F /  0.8 °C 30.13in /  1020.2hPa WSW 7mph /  11.3km/h 12mph /  19.3km/h 89% 0.00in /  0mm 43 W/m2
14:30 36.3 °F /  2.4 °C 33.1 °F /  0.6 °C 30.14in /  1020.5hPa WSW 5mph /  8km/h 12mph /  19.3km/h 88% 0.00in /  0mm 41 W/m2
14:40 36.1 °F /  2.3 °C 33.2 °F /  0.7 °C 30.14in /  1020.5hPa WSW 6mph /  9.7km/h 8mph /  12.9km/h 89% 0.00in /  0mm 28 W/m2
14:50 36.1 °F /  2.3 °C 33.2 °F /  0.7 °C 30.14in /  1020.5hPa WSW 6mph /  9.7km/h 9mph /  14.5km/h 89% 0.00in /  0mm 26 W/m2
15:00 36.1 °F /  2.3 °C 33.2 °F /  0.7 °C 30.14in /  1020.5hPa WSW 8mph /  12.9km/h 13mph /  20.9km/h 89% 0.00in /  0mm 29 W/m2
15:10 36 °F /  2.2 °C 33 °F /  0.6 °C 30.14in /  1020.5hPa WSW 5mph /  8km/h 12mph /  19.3km/h 89% 0.00in /  0mm 18 W/m2
15:20 35.8 °F /  2.1 °C 32.9 °F /  0.5 °C 30.14in /  1020.5hPa WSW 6mph /  9.7km/h 11mph /  17.7km/h 89% 0.00in /  0mm 10 W/m2
15:30 35.6 °F /  2 °C 32.7 °F /  0.4 °C 30.14in /  1020.5hPa WSW 5mph /  8km/h 8mph /  12.9km/h 89% 0.00in /  0mm 7 W/m2
15:40 35.4 °F /  1.9 °C 32.5 °F /  0.3 °C 30.14in /  1020.5hPa WSW 6mph /  9.7km/h 10mph /  16.1km/h 89% 0.00in /  0mm 5 W/m2
15:50 35.4 °F /  1.9 °C 32.5 °F /  0.3 °C 30.14in /  1020.5hPa WSW 7mph /  11.3km/h 12mph /  19.3km/h 89% 0.00in /  0mm 2 W/m2
16:00 35.4 °F /  1.9 °C 32.5 °F /  0.3 °C 30.14in /  1020.5hPa WSW 8mph /  12.9km/h 14mph /  22.5km/h 89% 0.00in /  0mm 0 W/m2
16:10 35.4 °F /  1.9 °C 32.5 °F /  0.3 °C 30.15in /  1020.9hPa SW 8mph /  12.9km/h 16mph /  25.7km/h 89% 0.00in /  0mm 0 W/m2
16:20 35.4 °F /  1.9 °C 32.5 °F /  0.3 °C 30.15in /  1020.9hPa WSW 7mph /  11.3km/h 14mph /  22.5km/h 89% 0.00in /  0mm 0 W/m2
16:30 35.4 °F /  1.9 °C 32.5 °F /  0.3 °C 30.15in /  1020.9hPa WSW 7mph /  11.3km/h 12mph /  19.3km/h 89% 0.00in /  0mm 0 W/m2
16:40 35.4 °F /  1.9 °C 32.5 °F /  0.3 °C 30.15in /  1020.9hPa SW 2mph /  3.2km/h 8mph /  12.9km/h 89% 0.00in /  0mm 0 W/m2
16:50 35.2 °F /  1.8 °C 32.6 °F /  0.3 °C 30.15in /  1020.9hPa WSW 3mph /  4.8km/h 9mph /  14.5km/h 90% 0.00in /  0mm 0 W/m2
17:00 35.2 °F /  1.8 °C 32.6 °F /  0.3 °C 30.15in /  1020.9hPa WSW 5mph /  8km/h 8mph /  12.9km/h 90% 0.00in /  0mm 0 W/m2
17:10 35.2 °F /  1.8 °C 32.6 °F /  0.3 °C 30.15in /  1020.9hPa WSW 5mph /  8km/h 8mph /  12.9km/h 90% 0.00in /  0mm 0 W/m2
17:30 35.2 °F /  1.8 °C 32.6 °F /  0.3 °C 30.16in /  1021.2hPa SW 3mph /  4.8km/h 8mph /  12.9km/h 90% 0.00in /  0mm 0 W/m2
17:40 35.2 °F /  1.8 °C 32.6 °F /  0.3 °C 30.16in /  1021.2hPa SW 3mph /  4.8km/h 10mph /  16.1km/h 90% 0.00in /  0mm 0 W/m2
17:50 35.1 °F /  1.7 °C 32.4 °F /  0.2 °C 30.16in /  1021.2hPa WSW 3mph /  4.8km/h 8mph /  12.9km/h 90% 0.00in /  0mm 0 W/m2
18:00 35.1 °F /  1.7 °C 32.4 °F /  0.2 °C 30.16in /  1021.2hPa WSW 7mph /  11.3km/h 12mph /  19.3km/h 90% 0.00in /  0mm 0 W/m2
18:10 35.1 °F /  1.7 °C 32.4 °F /  0.2 °C 30.16in /  1021.2hPa SW 8mph /  12.9km/h 18mph /  29km/h 90% 0.00in /  0mm 0 W/m2
18:20 35.2 °F /  1.8 °C 32.6 °F /  0.3 °C 30.17in /  1021.6hPa SW 5mph /  8km/h 18mph /  29km/h 90% 0.00in /  0mm 0 W/m2
18:30 35.2 °F /  1.8 °C 32.6 °F /  0.3 °C 30.17in /  1021.6hPa SW 5mph /  8km/h 10mph /  16.1km/h 90% 0.00in /  0mm 0 W/m2
18:40 35.2 °F /  1.8 °C 32.6 °F /  0.3 °C 30.17in /  1021.6hPa SW 3mph /  4.8km/h 8mph /  12.9km/h 90% 0.00in /  0mm 0 W/m2
18:50 35.2 °F /  1.8 °C 32.6 °F /  0.3 °C 30.17in /  1021.6hPa SW 3mph /  4.8km/h 7mph /  11.3km/h 90% 0.00in /  0mm 0 W/m2
19:00 35.1 °F /  1.7 °C 32.4 °F /  0.2 °C 30.17in /  1021.6hPa SSW 5mph /  8km/h 6mph /  9.7km/h 90% 0.00in /  0mm 0 W/m2
19:10 35.1 °F /  1.7 °C 32.7 °F /  0.4 °C 30.17in /  1021.6hPa SW 3mph /  4.8km/h 6mph /  9.7km/h 91% 0.00in /  0mm 0 W/m2
19:20 35.1 °F /  1.7 °C 32.4 °F /  0.2 °C 30.17in /  1021.6hPa WSW 6mph /  9.7km/h 9mph /  14.5km/h 90% 0.00in /  0mm 0 W/m2
19:30 35.1 °F /  1.7 °C 32.4 °F /  0.2 °C 30.17in /  1021.6hPa SW 7mph /  11.3km/h 9mph /  14.5km/h 90% 0.00in /  0mm 0 W/m2
19:40 35 °F /  1.7 °C 32.4 °F /  0.2 °C 30.17in /  1021.6hPa WSW 7mph /  11.3km/h 9mph /  14.5km/h 90% 0.00in /  0mm 0 W/m2
19:50 34.9 °F /  1.6 °C 32.2 °F /  0.1 °C 30.17in /  1021.6hPa WSW 7mph /  11.3km/h 9mph /  14.5km/h 90% 0.00in /  0mm 0 W/m2
20:00 34.9 °F /  1.6 °C 32.5 °F /  0.3 °C 30.18in /  1021.9hPa SW 6mph /  9.7km/h 15mph /  24.1km/h 91% 0.00in /  0mm 0 W/m2
20:10 34.7 °F /  1.5 °C 32.3 °F /  0.2 °C 30.18in /  1021.9hPa SW 9mph /  14.5km/h 14mph /  22.5km/h 91% 0.00in /  0mm 0 W/m2
20:20 34.7 °F /  1.5 °C 32.9 °F /  0.5 °C 30.18in /  1021.9hPa SW 3mph /  4.8km/h 16mph /  25.7km/h 93% 0.00in /  0mm 0 W/m2
20:30 34.5 °F /  1.4 °C 33 °F /  0.6 °C 30.18in /  1021.9hPa SW 3mph /  4.8km/h 7mph /  11.3km/h 94% 0.00in /  0mm 0 W/m2
20:40 34.3 °F /  1.3 °C 32.8 °F /  0.4 °C 30.18in /  1021.9hPa SW 3mph /  4.8km/h 8mph /  12.9km/h 94% 0.00in /  0mm 0 W/m2
20:50 34.2 °F /  1.2 °C 32.9 °F /  0.5 °C 30.19in /  1022.2hPa SW 5mph /  8km/h 10mph /  16.1km/h 95% 0.00in /  0mm 0 W/m2
21:00 34 °F /  1.1 °C 32.9 °F /  0.5 °C 30.18in /  1021.9hPa SW 3mph /  4.8km/h 10mph /  16.1km/h 96% 0.00in /  0mm 0 W/m2
21:10 33.8 °F /  1 °C 32.8 °F /  0.4 °C 30.19in /  1022.2hPa SW 3mph /  4.8km/h 8mph /  12.9km/h 96% 0.00in /  0mm 0 W/m2
21:20 33.6 °F /  0.9 °C 32.6 °F /  0.3 °C 30.19in /  1022.2hPa SW 3mph /  4.8km/h 7mph /  11.3km/h 96% 0.00in /  0mm 0 W/m2
21:30 33.6 °F /  0.9 °C 33.1 °F /  0.6 °C 30.19in /  1022.2hPa WSW 5mph /  8km/h 8mph /  12.9km/h 98% 0.00in /  0mm 0 W/m2
21:40 33.4 °F /  0.8 °C 32.9 °F /  0.5 °C 30.19in /  1022.2hPa SW 2mph /  3.2km/h 6mph /  9.7km/h 98% 0.00in /  0mm 0 W/m2
21:50 33.4 °F /  0.8 °C 32.9 °F /  0.5 °C 30.19in /  1022.2hPa SW 2mph /  3.2km/h 5mph /  8km/h 98% 0.00in /  0mm 0 W/m2
22:00 33.4 °F /  0.8 °C 33.2 °F /  0.7 °C 30.19in /  1022.2hPa WSW 2mph /  3.2km/h 5mph /  8km/h 99% 0.00in /  0mm 0 W/m2
22:10 33.4 °F /  0.8 °C 33.2 °F /  0.7 °C 30.19in /  1022.2hPa South 2mph /  3.2km/h 5mph /  8km/h 99% 0.00in /  0mm 0 W/m2
22:20 33.4 °F /  0.8 °C 33.2 °F /  0.7 °C 30.19in /  1022.2hPa SW 1mph /  1.6km/h 4mph /  6.4km/h 99% 0.00in /  0mm 0 W/m2
22:30 33.4 °F /  0.8 °C 33.2 °F /  0.7 °C 30.19in /  1022.2hPa SSW 1mph /  1.6km/h 3mph /  4.8km/h 99% 0.00in /  0mm 0 W/m2
22:40 33.4 °F /  0.8 °C 33.2 °F /  0.7 °C 30.19in /  1022.2hPa Calm   4mph /  6.4km/h 99% 0.00in /  0mm 0 W/m2
22:50 33.3 °F /  0.7 °C 33 °F /  0.6 °C 30.19in /  1022.2hPa Calm   2mph /  3.2km/h 99% 0.00in /  0mm 0 W/m2
23:00 33.3 °F /  0.7 °C 33 °F /  0.6 °C 30.19in /  1022.2hPa WSW 1mph /  1.6km/h 2mph /  3.2km/h 99% 0.00in /  0mm 0 W/m2
23:10 33.3 °F /  0.7 °C 33 °F /  0.6 °C 30.19in /  1022.2hPa WSW 1mph /  1.6km/h 2mph /  3.2km/h 99% 0.00in /  0mm 0 W/m2
23:20 33.3 °F /  0.7 °C 33 °F /  0.6 °C 30.19in /  1022.2hPa SW 1mph /  1.6km/h 2mph /  3.2km/h 99% 0.00in /  0mm 0 W/m2
23:30 33.3 °F /  0.7 °C 33 °F /  0.6 °C 30.18in /  1021.9hPa South 1mph /  1.6km/h 4mph /  6.4km/h 99% 0.00in /  0mm 0 W/m2
23:40 33.2 °F /  0.7 °C 33 °F /  0.6 °C 30.18in /  1021.9hPa West 1mph /  1.6km/h 2mph /  3.2km/h 99% 0.00in /  0mm 0 W/m2
23:50 33.2 °F /  0.7 °C 33 °F /  0.6 °C 30.18in /  1021.9hPa WSW 1mph /  1.6km/h 2mph /  3.2km/h 99% 0.00in /  0mm 0 W/m2
Knjazevac, Serbia
Compliments of Weather Underground - 2 mb